createdAt,value
2022-11-28T00:00:10.495Z,101518.27
2022-11-28T00:03:01.980Z,101521.59
2022-11-28T00:05:31.052Z,101528.45
2022-11-28T00:08:00.233Z,101521.55
2022-11-28T00:10:28.838Z,101517.20
2022-11-28T00:12:57.314Z,101517.20
2022-11-28T00:15:26.006Z,101520.65
2022-11-28T00:17:54.500Z,101514.64
2022-11-28T00:20:23.934Z,101508.59
2022-11-28T00:22:52.458Z,101511.98
2022-11-28T00:25:20.950Z,101512.73
2022-11-28T00:27:52.019Z,101517.88
2022-11-28T00:30:21.847Z,101513.69
2022-11-28T00:32:50.412Z,101516.27
2022-11-28T00:35:18.964Z,101515.39
2022-11-28T00:37:48.471Z,101511.06
2022-11-28T00:40:17.757Z,101509.35
2022-11-28T00:42:46.260Z,101508.48
2022-11-28T00:45:18.258Z,101510.25
2022-11-28T00:47:48.658Z,101510.25
2022-11-28T00:50:17.802Z,101508.54
2022-11-28T00:52:46.736Z,101504.26
2022-11-28T00:55:15.626Z,101501.69
2022-11-28T00:57:44.190Z,101503.39
2022-11-28T01:00:16.125Z,101504.26
2022-11-28T01:02:44.700Z,101504.34
2022-11-28T01:05:17.028Z,101503.53
2022-11-28T01:07:45.466Z,101501.82
2022-11-28T01:10:18.630Z,101507.78
2022-11-28T01:12:47.430Z,101505.30
2022-11-28T01:15:15.978Z,101509.62
2022-11-28T01:17:44.587Z,101500.14
2022-11-28T01:20:14.780Z,101501.82
2022-11-28T01:22:43.471Z,101491.48
2022-11-28T01:25:13.323Z,101491.39
2022-11-28T01:27:41.811Z,101490.48
2022-11-28T01:30:10.678Z,101490.48
2022-11-28T01:32:39.239Z,101486.95
2022-11-28T01:35:14.507Z,101486.95
2022-11-28T01:37:43.201Z,101479.23
2022-11-28T01:40:16.805Z,101485.25
2022-11-28T01:42:46.800Z,101479.29
2022-11-28T01:45:20.083Z,101472.47
2022-11-28T01:47:51.224Z,101474.14
2022-11-28T01:50:22.375Z,101474.09
2022-11-28T01:52:56.083Z,101473.19
2022-11-28T01:55:29.062Z,101464.56
2022-11-28T01:57:58.308Z,101461.98
2022-11-28T02:00:27.298Z,101461.14
2022-11-28T02:03:05.197Z,101463.66
2022-11-28T02:05:47.303Z,101457.66
2022-11-28T02:08:15.943Z,101447.23
2022-11-28T02:11:05.625Z,101450.56
2022-11-28T02:13:47.824Z,101446.15
2022-11-28T02:16:35.060Z,101440.95
2022-11-28T02:19:26.845Z,101447.86
2022-11-28T02:22:01.246Z,101444.47
2022-11-28T02:24:56.149Z,101439.33
2022-11-28T02:27:29.503Z,101436.67
2022-11-28T02:30:14.559Z,101438.33
2022-11-28T02:33:05.686Z,101435.76
2022-11-28T02:35:40.966Z,101427.14
2022-11-28T02:38:18.955Z,101434.00
2022-11-28T02:40:56.737Z,101428.85
2022-11-28T02:43:32.994Z,101427.14
2022-11-28T02:46:10.586Z,101426.28
2022-11-28T02:48:45.870Z,101421.05
2022-11-28T02:51:18.356Z,101425.33
2022-11-28T02:53:48.149Z,101427.86
2022-11-28T02:56:16.990Z,101422.63
2022-11-28T02:58:45.480Z,101421.81
2022-11-28T03:01:20.620Z,101426.14
2022-11-28T03:04:16.366Z,101419.30
2022-11-28T03:06:54.271Z,101421.00
2022-11-28T03:09:38.805Z,101412.42
2022-11-28T03:12:20.838Z,101411.52
2022-11-28T03:14:55.435Z,101410.58
2022-11-28T03:17:32.754Z,101414.77
2022-11-28T03:20:18.529Z,101412.96
2022-11-28T03:22:59.136Z,101419.73
2022-11-28T03:25:33.934Z,101415.30
2022-11-28T03:28:08.770Z,101417.59
2022-11-28T03:30:43.387Z,101411.45
2022-11-28T03:33:14.536Z,101407.02
2022-11-28T03:35:48.959Z,101407.02
2022-11-28T03:38:27.727Z,101407.02
2022-11-28T03:41:02.078Z,101411.27
2022-11-28T03:43:38.926Z,101411.27
2022-11-28T03:46:11.102Z,101413.78
2022-11-28T03:48:49.665Z,101415.34
2022-11-28T03:51:21.433Z,101413.59
2022-11-28T03:54:05.063Z,101408.36
2022-11-28T03:56:39.424Z,101412.69
2022-11-28T03:59:13.221Z,101407.55
2022-11-28T04:01:53.217Z,101407.55
2022-11-28T04:04:29.684Z,101411.83
2022-11-28T04:07:05.311Z,101404.98
2022-11-28T04:09:43.579Z,101410.13
2022-11-28T04:12:22.215Z,101406.73
2022-11-28T04:15:00.079Z,101405.88
2022-11-28T04:17:35.421Z,101409.31
2022-11-28T04:20:14.515Z,101406.73
2022-11-28T04:22:48.487Z,101406.73
2022-11-28T04:25:18.691Z,101411.07
2022-11-28T04:27:52.963Z,101404.17
2022-11-28T04:30:23.915Z,101395.64
2022-11-28T04:32:59.244Z,101396.51
2022-11-28T04:35:31.137Z,101402.49
2022-11-28T04:38:01.700Z,101401.55
2022-11-28T04:40:34.551Z,101404.03
2022-11-28T04:43:08.688Z,101399.70
2022-11-28T04:45:45.302Z,101402.16
2022-11-28T04:48:17.174Z,101403.78
2022-11-28T04:50:59.366Z,101406.30
2022-11-28T04:53:35.383Z,101411.30
2022-11-28T04:56:08.111Z,101400.02
2022-11-28T04:58:40.828Z,101398.26
2022-11-28T05:01:18.173Z,101405.97
2022-11-28T05:03:49.648Z,101398.26
2022-11-28T05:06:27.744Z,101400.74
2022-11-28T05:08:58.783Z,101400.74
2022-11-28T05:11:30.524Z,101398.98
2022-11-28T05:13:59.021Z,101395.55
2022-11-28T05:16:27.722Z,101394.59
2022-11-28T05:18:57.791Z,101395.35
2022-11-28T05:21:26.495Z,101395.30
2022-11-28T05:23:55.463Z,101396.97
2022-11-28T05:26:25.931Z,101396.02
2022-11-28T05:28:54.488Z,101392.59
2022-11-28T05:31:23.176Z,101391.69
2022-11-28T05:33:56.143Z,101398.59
2022-11-28T05:36:33.089Z,101394.26
2022-11-28T05:39:01.590Z,101390.83
2022-11-28T05:41:34.555Z,101399.34
2022-11-28T05:44:03.125Z,101404.43
2022-11-28T05:46:32.657Z,101406.19
2022-11-28T05:49:02.931Z,101398.48
2022-11-28T05:51:32.205Z,101399.34
2022-11-28T05:54:00.999Z,101401.11
2022-11-28T05:56:42.390Z,101395.07
2022-11-28T05:59:12.302Z,101398.48
2022-11-28T06:01:44.616Z,101400.16
2022-11-28T06:04:16.688Z,101397.45
2022-11-28T06:06:45.227Z,101392.30
2022-11-28T06:09:13.762Z,101393.11
2022-11-28T06:11:43.658Z,101392.25
2022-11-28T06:14:12.367Z,101388.81
2022-11-28T06:16:42.588Z,101394.82
2022-11-28T06:19:13.245Z,101388.88
2022-11-28T06:21:42.418Z,101393.11
2022-11-28T06:24:11.046Z,101391.44
2022-11-28T06:26:42.461Z,101387.05
2022-11-28T06:31:41.358Z,101393.06
2022-11-28T06:34:12.957Z,101391.39
2022-11-28T06:36:44.724Z,101401.66
2022-11-28T06:39:17.209Z,101402.47
2022-11-28T06:41:45.895Z,101397.33
2022-11-28T06:44:17.990Z,101399.09
2022-11-28T06:46:46.442Z,101399.15
2022-11-28T06:49:15.014Z,101395.69
2022-11-28T06:51:45.318Z,101400.02
2022-11-28T06:54:13.827Z,101401.77
2022-11-28T06:56:47.079Z,101409.48
2022-11-28T06:59:15.561Z,101404.34
2022-11-28T07:01:45.968Z,101400.97
2022-11-28T07:04:14.585Z,101405.34
2022-11-28T07:06:44.365Z,101404.48
2022-11-28T07:09:13.148Z,101407.20
2022-11-28T07:11:42.310Z,101402.11
2022-11-28T07:14:11.165Z,101394.45
2022-11-28T07:16:42.165Z,101404.06
2022-11-28T07:19:12.387Z,101399.07
2022-11-28T07:21:42.112Z,101396.64
2022-11-28T07:24:10.721Z,101395.07
2022-11-28T07:26:41.556Z,101402.84
2022-11-28T07:29:13.991Z,101396.08
2022-11-28T07:31:43.166Z,101402.16
2022-11-28T07:34:16.628Z,101398.84
2022-11-28T07:36:45.240Z,101394.64
2022-11-28T07:39:17.430Z,101394.78
2022-11-28T07:41:46.402Z,101393.08
2022-11-28T07:44:17.289Z,101400.03
2022-11-28T07:46:46.405Z,101395.89
2022-11-28T07:49:15.731Z,101394.34
2022-11-28T07:51:44.244Z,101394.45
2022-11-28T07:54:12.825Z,101393.72
2022-11-28T07:59:29.895Z,101393.96
2022-11-28T08:01:59.884Z,101392.34
2022-11-28T08:04:28.570Z,101400.10
2022-11-28T08:06:58.550Z,101401.10
2022-11-28T08:09:27.116Z,101395.23
2022-11-28T08:11:56.060Z,101403.86
2022-11-28T08:14:24.930Z,101397.09
2022-11-28T08:16:53.568Z,101398.93
2022-11-28T08:19:24.545Z,101400.66
2022-11-28T08:21:53.380Z,101399.03
2022-11-28T08:24:22.114Z,101399.92
2022-11-28T08:26:50.657Z,101398.22
2022-11-28T08:29:19.394Z,101397.41
2022-11-28T08:31:48.151Z,101391.45
2022-11-28T08:34:16.650Z,101392.39
2022-11-28T08:36:46.844Z,101392.52
2022-11-28T08:39:24.096Z,101390.98
2022-11-28T08:41:56.513Z,101385.20
2022-11-28T08:44:26.259Z,101386.16
2022-11-28T08:46:55.830Z,101390.53
2022-11-28T08:49:24.368Z,101388.09
2022-11-28T08:51:52.876Z,101391.70
2022-11-28T08:54:21.412Z,101386.69
2022-11-28T08:56:50.246Z,101386.77
2022-11-28T08:59:20.903Z,101386.13
2022-11-28T09:01:49.470Z,101388.05
2022-11-28T09:04:18.114Z,101377.03
2022-11-28T09:06:46.877Z,101381.49
2022-11-28T09:09:15.640Z,101379.09
2022-11-28T09:11:44.736Z,101370.84
2022-11-28T09:14:13.483Z,101373.67
2022-11-28T09:16:43.057Z,101379.11
2022-11-28T09:19:11.727Z,101369.09
2022-11-28T09:21:43.932Z,101359.92
2022-11-28T09:24:13.652Z,101364.50
2022-11-28T09:26:43.145Z,101362.00
2022-11-28T09:29:11.677Z,101367.39
2022-11-28T09:31:47.356Z,101357.94
2022-11-28T09:34:16.943Z,101357.90
2022-11-28T09:36:45.537Z,101355.33
2022-11-28T09:39:14.134Z,101355.59
2022-11-28T09:42:00.690Z,101357.44
2022-11-28T09:44:36.874Z,101353.33
2022-11-28T09:47:12.894Z,101356.84
2022-11-28T09:49:46.348Z,101353.48
2022-11-28T09:52:26.653Z,101348.33
2022-11-28T09:55:08.315Z,101342.39
2022-11-28T09:57:44.046Z,101338.13
2022-11-28T10:00:16.961Z,101333.91
2022-11-28T10:03:00.691Z,101336.56
2022-11-28T10:05:40.162Z,101336.71
2022-11-28T10:08:21.637Z,101326.51
2022-11-28T10:11:00.623Z,101330.73
2022-11-28T10:14:06.797Z,101329.05
2022-11-28T10:16:41.822Z,101328.08
2022-11-28T10:19:31.546Z,101322.02
2022-11-28T10:22:07.669Z,101317.84
2022-11-28T10:24:40.170Z,101323.89
2022-11-28T10:27:14.452Z,101321.31
2022-11-28T10:29:45.980Z,101316.08
2022-11-28T10:32:18.059Z,101319.44
2022-11-28T10:34:53.095Z,101313.36
2022-11-28T10:37:25.892Z,101314.25
2022-11-28T10:39:56.488Z,101315.93
2022-11-28T10:42:31.813Z,101304.80
2022-11-28T10:45:20.829Z,101303.19
2022-11-28T10:48:38.044Z,101304.08
2022-11-28T10:51:12.532Z,101298.10
2022-11-28T10:53:52.331Z,101302.33
2022-11-28T10:56:32.663Z,101301.50
2022-11-28T10:59:12.384Z,101296.49
2022-11-28T11:01:47.250Z,101294.09
2022-11-28T11:04:21.748Z,101292.34
2022-11-28T11:07:14.878Z,101285.61
2022-11-28T11:09:46.849Z,101286.50
2022-11-28T11:12:21.263Z,101291.63
2022-11-28T11:14:49.919Z,101283.03
2022-11-28T11:17:36.237Z,101283.78
2022-11-28T11:20:26.265Z,101290.66
2022-11-28T11:22:56.666Z,101298.25
2022-11-28T11:25:27.960Z,101291.23
2022-11-28T11:28:00.490Z,101295.45
2022-11-28T11:30:32.055Z,101299.71
2022-11-28T11:33:05.041Z,101297.80
2022-11-28T11:35:42.799Z,101300.31
2022-11-28T11:38:27.008Z,101298.48
2022-11-28T11:40:55.740Z,101302.63
2022-11-28T11:43:27.335Z,101305.17
2022-11-28T11:46:08.970Z,101301.66
2022-11-28T11:48:43.101Z,101295.64
2022-11-28T11:51:24.081Z,101297.44
2022-11-28T11:54:04.744Z,101295.72
2022-11-28T11:56:38.185Z,101295.80
2022-11-28T11:59:14.303Z,101300.12
2022-11-28T12:01:45.845Z,101305.28
2022-11-28T12:04:43.675Z,101299.16
2022-11-28T12:07:21.662Z,101299.16
2022-11-28T12:09:55.444Z,101293.10
2022-11-28T12:12:26.055Z,101299.05
2022-11-28T12:14:54.825Z,101303.27
2022-11-28T12:20:41.966Z,101304.08
2022-11-28T12:23:29.018Z,101298.00
2022-11-28T12:26:06.683Z,101289.44
2022-11-28T12:28:51.632Z,101290.27
2022-11-28T12:34:31.163Z,101283.42
2022-11-28T12:37:06.364Z,101286.00
2022-11-28T12:39:48.224Z,101287.69
2022-11-28T12:42:29.424Z,101290.27
2022-11-28T12:45:28.023Z,101287.61
2022-11-28T12:48:05.817Z,101281.52
2022-11-28T12:50:38.030Z,101288.43
2022-11-28T12:53:41.220Z,101296.16
2022-11-28T12:56:25.436Z,101284.92
2022-11-28T12:59:03.298Z,101290.89
2022-11-28T13:01:47.412Z,101282.27
2022-11-28T13:04:40.224Z,101281.41
2022-11-28T13:07:18.930Z,101277.97
2022-11-28T13:10:01.162Z,101282.23
2022-11-28T13:12:45.511Z,101278.72
2022-11-28T13:15:20.022Z,101280.36
2022-11-28T13:17:54.001Z,101282.03
2022-11-28T13:20:29.740Z,101281.14
2022-11-28T13:23:12.810Z,101284.54
2022-11-28T13:25:51.739Z,101279.34
2022-11-28T13:28:27.721Z,101287.89
2022-11-28T13:31:04.114Z,101288.67
2022-11-28T13:33:46.784Z,101283.45
2022-11-28T13:39:21.595Z,101293.67
2022-11-28T13:42:28.388Z,101287.70
2022-11-28T13:44:58.738Z,101279.03
2022-11-28T13:47:31.789Z,101283.30
2022-11-28T13:50:39.591Z,101274.63
2022-11-28T13:53:25.170Z,101281.45
2022-11-28T13:56:23.920Z,101274.55
2022-11-28T13:58:56.387Z,101276.14
2022-11-28T14:01:33.059Z,101272.67
2022-11-28T14:04:09.785Z,101274.31
2022-11-28T14:06:44.514Z,101273.41
2022-11-28T14:09:34.543Z,101276.84
2022-11-28T14:12:17.908Z,101274.23
2022-11-28T14:15:08.304Z,101272.40
2022-11-28T14:17:53.986Z,101273.30
2022-11-28T14:20:31.034Z,101268.06
2022-11-28T14:23:18.743Z,101266.23
2022-11-28T14:25:50.551Z,101261.85
2022-11-28T14:28:24.764Z,101266.11
2022-11-28T14:31:02.910Z,101260.96
2022-11-28T14:33:39.369Z,101266.11
2022-11-28T14:36:27.372Z,101259.28
2022-11-28T14:39:30.760Z,101256.63
2022-11-28T14:42:59.715Z,101256.63
2022-11-28T14:45:53.943Z,101254.88
2022-11-28T14:48:30.338Z,101260.84
2022-11-28T14:51:02.091Z,101254.79
2022-11-28T14:53:44.041Z,101259.00
2022-11-28T14:56:31.634Z,101265.02
2022-11-28T14:59:04.490Z,101247.77
2022-11-28T15:01:58.645Z,101252.95
2022-11-28T15:04:50.704Z,101258.88
2022-11-28T15:07:31.749Z,101252.80
2022-11-28T15:10:09.650Z,101261.42
2022-11-28T15:12:54.752Z,101254.52
2022-11-28T15:15:23.855Z,101253.62
2022-11-28T15:17:54.653Z,101257.01
2022-11-28T15:20:30.553Z,101255.25
2022-11-28T15:22:59.073Z,101255.20
2022-11-28T15:25:35.398Z,101256.03
2022-11-28T15:28:14.782Z,101255.17
2022-11-28T15:30:49.834Z,101255.98
2022-11-28T15:33:21.934Z,101253.34
2022-11-28T15:35:59.665Z,101258.44
2022-11-28T15:38:30.395Z,101256.69
2022-11-28T15:41:00.335Z,101259.26
2022-11-28T15:43:32.044Z,101254.92
2022-11-28T15:46:01.821Z,101256.64
2022-11-28T15:48:39.269Z,101260.08
2022-11-28T15:51:25.994Z,101255.70
2022-11-28T15:53:54.888Z,101259.98
2022-11-28T15:56:24.252Z,101259.98
2022-11-28T15:58:54.561Z,101256.52
2022-11-28T16:01:25.295Z,101261.67
2022-11-28T16:03:56.957Z,101249.70
2022-11-28T16:06:30.076Z,101254.84
2022-11-28T16:09:04.052Z,101253.91
2022-11-28T16:11:37.189Z,101258.16
2022-11-28T16:14:10.470Z,101255.66
2022-11-28T16:16:44.867Z,101263.38
2022-11-28T16:19:24.855Z,101258.23
2022-11-28T16:21:56.506Z,101258.11
2022-11-28T16:24:31.117Z,101265.02
2022-11-28T16:27:05.614Z,101253.83
2022-11-28T16:29:36.585Z,101258.97
2022-11-28T16:32:21.216Z,101256.31
2022-11-28T16:34:49.867Z,101261.45
2022-11-28T16:37:22.909Z,101257.13
2022-11-28T16:40:02.038Z,101260.52
2022-11-28T16:42:31.152Z,101253.62
2022-11-28T16:45:09.435Z,101259.58
2022-11-28T16:47:39.684Z,101263.86
2022-11-28T16:50:20.992Z,101263.86
2022-11-28T16:52:51.703Z,101258.64
2022-11-28T16:55:40.765Z,101254.31
2022-11-28T16:58:19.192Z,101263.74
2022-11-28T17:00:59.193Z,101260.28
2022-11-28T17:03:45.381Z,101258.47
2022-11-28T17:06:23.047Z,101255.86
2022-11-28T17:08:52.217Z,101261.82
2022-11-28T17:11:23.895Z,101266.07
2022-11-28T17:13:55.086Z,101260.02
2022-11-28T17:16:27.288Z,101267.73
2022-11-28T17:18:56.170Z,101261.70
2022-11-28T17:21:31.985Z,101264.22
2022-11-28T17:24:01.425Z,101267.61
2022-11-28T17:26:30.669Z,101270.11
2022-11-28T17:29:01.792Z,101267.48
2022-11-28T17:31:34.476Z,101280.31
2022-11-28T17:34:05.093Z,101270.02
2022-11-28T17:36:33.676Z,101275.98
2022-11-28T17:39:05.362Z,101269.12
2022-11-28T17:41:35.770Z,101269.94
2022-11-28T17:44:04.843Z,101266.50
2022-11-28T17:46:37.320Z,101263.93
2022-11-28T17:49:08.975Z,101271.52
2022-11-28T17:51:37.711Z,101269.77
2022-11-28T17:54:10.117Z,101272.29
2022-11-28T17:56:41.724Z,101272.16
2022-11-28T17:59:11.792Z,101284.21
2022-11-28T18:01:43.480Z,101279.06
2022-11-28T18:04:12.864Z,101279.06
2022-11-28T18:06:44.220Z,101276.37
2022-11-28T18:09:14.191Z,101278.08
2022-11-28T18:11:46.197Z,101276.32
2022-11-28T18:14:19.215Z,101274.56
2022-11-28T18:16:49.103Z,101275.33
2022-11-28T18:19:24.346Z,101277.91
2022-11-28T18:21:53.378Z,101271.82
2022-11-28T18:24:23.306Z,101264.05
2022-11-28T18:26:54.334Z,101264.05
2022-11-28T18:29:24.601Z,101266.55
2022-11-28T18:31:55.469Z,101273.40
2022-11-28T18:34:24.350Z,101273.27
2022-11-28T18:37:00.201Z,101270.66
2022-11-28T18:39:33.785Z,101280.00
2022-11-28T18:42:02.504Z,101285.02
2022-11-28T18:44:31.069Z,101280.63
2022-11-28T18:47:00.182Z,101280.50
2022-11-28T18:49:28.686Z,101283.02
2022-11-28T18:51:57.492Z,101287.09
2022-11-28T18:54:26.419Z,101284.42
2022-11-28T18:56:54.951Z,101292.81
2022-11-28T18:59:26.486Z,101301.34
2022-11-28T19:01:55.040Z,101296.06
2022-11-28T19:04:24.295Z,101298.64
2022-11-28T19:06:53.171Z,101288.17
2022-11-28T19:09:22.887Z,101289.74
2022-11-28T19:11:51.635Z,101297.41
2022-11-28T19:14:21.296Z,101283.61
2022-11-28T19:16:53.160Z,101286.94
2022-11-28T19:19:23.481Z,101290.19
2022-11-28T19:21:52.160Z,101286.53
2022-11-28T19:24:23.336Z,101284.67
2022-11-28T19:26:52.081Z,101299.09
2022-11-28T19:29:21.967Z,101292.91
2022-11-28T19:31:53.437Z,101303.09
2022-11-28T19:34:22.908Z,101302.14
2022-11-28T19:36:51.536Z,101303.77
2022-11-28T19:39:21.916Z,101306.14
2022-11-28T19:41:54.362Z,101303.43
2022-11-28T19:44:24.128Z,101313.59
2022-11-28T19:46:53.257Z,101303.18
2022-11-28T19:49:27.471Z,101312.56
2022-11-28T19:51:57.443Z,101303.09
2022-11-28T19:54:26.115Z,101301.37
2022-11-28T19:56:56.091Z,101303.80
2022-11-28T19:59:24.739Z,101305.36
2022-11-28T20:01:53.425Z,101298.47
2022-11-28T20:04:24.352Z,101301.03
2022-11-28T20:06:53.157Z,101300.08
2022-11-28T20:12:06.891Z,101309.45
2022-11-28T20:14:41.950Z,101315.48
2022-11-28T20:17:13.637Z,101308.59
2022-11-28T20:19:42.959Z,101305.22
2022-11-28T20:22:11.948Z,101307.64
2022-11-28T20:24:41.137Z,101306.78
2022-11-28T20:27:14.333Z,101306.69
2022-11-28T20:29:44.032Z,101301.50
2022-11-28T20:32:13.025Z,101305.77
2022-11-28T20:34:41.973Z,101300.55
2022-11-28T20:37:13.651Z,101301.45
2022-11-28T20:39:45.796Z,101300.55
2022-11-28T20:42:15.706Z,101314.20
2022-11-28T20:44:44.500Z,101311.57
2022-11-28T20:47:14.164Z,101318.47
2022-11-28T20:49:45.124Z,101312.44
2022-11-28T20:52:14.036Z,101317.56
2022-11-28T20:54:47.722Z,101318.47
2022-11-28T20:57:21.850Z,101318.47
2022-11-28T20:59:52.019Z,101317.56
2022-11-28T21:02:21.000Z,101315.90
2022-11-28T21:04:49.749Z,101310.70
2022-11-28T21:07:18.778Z,101321.84
2022-11-28T21:09:48.984Z,101314.08
2022-11-28T21:12:20.955Z,101314.89
2022-11-28T21:14:51.471Z,101319.22
2022-11-28T21:17:20.134Z,101313.12
2022-11-28T21:19:48.692Z,101310.56
2022-11-28T21:22:17.275Z,101308.80
2022-11-28T21:24:50.668Z,101314.75
2022-11-28T21:27:19.337Z,101312.98
2022-11-28T21:29:50.016Z,101317.26
2022-11-28T21:32:18.741Z,101313.80
2022-11-28T21:34:47.316Z,101320.75
2022-11-28T21:37:15.911Z,101317.31
2022-11-28T21:39:47.451Z,101317.31
2022-11-28T21:42:20.547Z,101314.75
2022-11-28T21:44:49.632Z,101317.26
2022-11-28T21:47:18.535Z,101309.56
2022-11-28T21:49:47.178Z,101317.26
2022-11-28T21:52:18.674Z,101308.75
2022-11-28T21:54:52.736Z,101315.55
2022-11-28T21:57:22.550Z,101307.80
2022-11-28T21:59:51.394Z,101303.61
2022-11-28T22:02:23.832Z,101304.42
2022-11-28T22:04:55.714Z,101302.72
2022-11-28T22:07:24.442Z,101309.61
2022-11-28T22:09:53.812Z,101307.05
2022-11-28T22:12:22.912Z,101307.91
2022-11-28T22:14:51.587Z,101295.08
2022-11-28T22:17:20.338Z,101300.20
2022-11-28T22:19:50.656Z,101293.34
2022-11-28T22:22:21.856Z,101293.34
2022-11-28T22:24:50.884Z,101294.21
2022-11-28T22:27:19.929Z,101292.45
2022-11-28T22:29:49.003Z,101287.31
2022-11-28T22:32:18.282Z,101298.48
2022-11-28T22:34:46.920Z,101292.45
2022-11-28T22:37:16.073Z,101295.91
2022-11-28T22:39:51.974Z,101295.08
2022-11-28T22:42:21.128Z,101291.59
2022-11-28T22:44:50.400Z,101289.02
2022-11-28T22:47:20.910Z,101296.72
2022-11-28T22:49:49.423Z,101292.45
2022-11-28T22:52:20.488Z,101294.16
2022-11-28T22:54:50.643Z,101293.26
2022-11-28T22:57:20.259Z,101294.06
2022-11-28T22:59:49.559Z,101293.26
2022-11-28T23:02:19.159Z,101294.16
2022-11-28T23:04:52.499Z,101289.02
2022-11-28T23:07:21.434Z,101286.36
2022-11-28T23:09:50.876Z,101287.27
2022-11-28T23:12:19.755Z,101288.94
2022-11-28T23:14:52.161Z,101278.66
2022-11-28T23:17:21.163Z,101289.73
2022-11-28T23:19:52.872Z,101295.68
2022-11-28T23:22:22.505Z,101292.31
2022-11-28T23:24:52.057Z,101291.50
2022-11-28T23:27:20.766Z,101289.73
2022-11-28T23:29:49.611Z,101291.50
2022-11-28T23:32:18.262Z,101288.07
2022-11-28T23:34:47.447Z,101282.13
2022-11-28T23:37:17.916Z,101288.13
2022-11-28T23:39:46.771Z,101285.56
2022-11-28T23:42:15.477Z,101282.98
2022-11-28T23:44:44.236Z,101284.75
2022-11-28T23:47:14.819Z,101277.05
2022-11-28T23:49:43.670Z,101284.75
2022-11-28T23:52:12.265Z,101277.86
2022-11-28T23:54:41.748Z,101284.75
2022-11-28T23:57:11.776Z,101276.19
2022-11-28T23:59:43.830Z,101281.37
